Latest Weather Observations for Newdegate

IDW60801

Issued at 8:33 am WST Tuesday 17 January 2017 (issued every 30 minutes, with the page automatically refreshed every 10 minutes)

About weather observations | Map of weather stations | Latest weather observations for WA | Other Formats
Station Details ID: 010692 Name: NEWDEGATE RESEARCH STATION Lat: -33.11 Lon: 118.84 Height: 320.0 m
Data from the previous 72 hours. | See also: Recent months at Newdegate
Date/Time
WST
Temp
°C
App
Temp
°C
Dew
Point
°C
Rel
Hum
%
Delta-T
°C
Wind Press
QNH
hPa
Press
MSL
hPa
Rain since
9am
mm
Dir  Spd
km/h
Gust
km/h
Spd
kts
Gust
kts
17/08:30am 16.9 12.2 7.8 55 4.7 SE 22 32 12 17 1016.8 1015.4 0.0
17/08:00am 15.9 10.5 7.9 59 4.1 SE 26 35 14 19 1016.9 1015.5 0.0
17/07:30am 15.4 9.5 7.7 60 3.9 SE 28 35 15 19 1016.9 1015.5 0.0
17/07:00am 15.4 9.9 7.7 60 3.9 SE 26 33 14 18 1016.7 1015.3 0.0
17/06:30am 14.1 9.8 7.9 66 3.1 SE 20 33 11 18 1016.5 1015.0 0.0
17/06:00am 13.8 9.8 8.2 69 2.8 SSE 19 28 10 15 1016.2 1014.7 0.0
17/05:30am 13.3 9.8 8.6 73 2.4 SSE 17 26 9 14 1015.9 1014.4 0.0
17/05:00am 12.5 9.2 8.0 74 2.2 SSE 15 24 8 13 1015.3 1013.9 0.0
17/04:30am 14.0 9.4 8.2 68 2.9 SSE 22 30 12 16 1014.8 1013.4 0.0
17/04:00am 14.6 10.0 8.1 65 3.3 SSE 22 32 12 17 1014.4 1013.0 0.0
17/03:30am 14.6 10.7 8.8 68 3.0 SSE 19 28 10 15 1014.2 1012.8 0.0
17/03:00am 14.2 10.3 9.4 73 2.5 SE 20 30 11 16 1014.2 1012.8 0.0
17/02:30am 14.5 10.1 9.1 70 2.8 SE 22 30 12 16 1013.8 1012.3 0.0
17/02:00am 14.3 10.5 8.9 70 2.8 SE 19 26 10 14 1013.6 1012.1 0.0
17/01:30am 13.6 10.9 9.1 74 2.3 SE 13 17 7 9 1013.7 1012.2 0.0
17/01:00am 13.2 10.0 8.5 73 2.4 SSE 15 20 8 11 1013.4 1011.9 0.0
17/12:30am 13.6 10.1 8.7 72 2.5 SSE 17 22 9 12 1013.5 1012.0 0.0
17/12:00am 14.1 9.6 8.7 70 2.8 SE 22 32 12 17 1013.7 1012.2 0.0
 
Date/Time
WST
Temp
°C
App
Temp
°C
Dew
Point
°C
Rel
Hum
%
Delta-T
°C
Wind Press
QNH
hPa
Press
MSL
hPa
Rain since
9am
mm
Dir  Spd
km/h
Gust
km/h
Spd
kts
Gust
kts
16/11:30pm 14.5 10.6 8.7 68 3.0 SE 19 28 10 15 1013.8 1012.3 0.0
16/11:00pm 14.7 10.3 8.9 68 3.0 SE 22 28 12 15 1014.0 1012.6 0.0
16/10:30pm 14.9 10.0 8.6 66 3.2 SE 24 30 13 16 1013.9 1012.5 0.0
16/10:00pm 15.2 9.5 8.4 64 3.5 SE 28 37 15 20 1014.0 1012.6 0.0
16/09:30pm 15.6 10.8 8.8 64 3.5 SE 24 33 13 18 1013.7 1012.2 0.0
16/09:00pm 15.9 10.0 9.1 64 3.6 SSE 30 39 16 21 1013.2 1011.7 0.0
16/08:30pm 16.7 10.6 9.6 63 3.8 SSE 32 41 17 22 1012.8 1011.3 0.0
16/08:00pm 17.1 10.9 10.2 64 3.7 SSE 33 44 18 24 1012.5 1011.0 0.0
16/07:30pm 18.1 12.6 10.5 61 4.1 SSE 30 43 16 23 1011.8 1010.4 0.0
16/07:00pm 19.7 12.6 9.6 52 5.5 SE 37 48 20 26 1011.5 1010.1 0.0
16/06:30pm 21.3 15.0 8.9 45 6.7 SE 32 46 17 25 1010.7 1009.2 0.0
16/06:00pm 23.6 17.7 7.7 36 8.5 ESE 28 46 15 25 1010.4 1008.9 0.0
16/05:30pm 25.0 19.0 7.2 32 9.5 SSE 28 35 15 19 1009.8 1008.3 0.0
16/05:04pm 25.2 19.2 6.9 31 9.7 SE 28 48 15 26 1009.4 1007.9 0.0
16/05:00pm 26.1 21.0 7.7 31 10.0 SE 24 39 13 21 1009.3 1007.8 0.0
16/04:30pm 26.0 20.1 7.6 31 9.9 SE 28 46 15 25 1008.9 1007.5 0.0
16/04:00pm 27.5 23.5 8.9 31 10.4 S 20 33 11 18 1008.6 1007.2 0.0
16/03:40pm 28.5 23.2 9.7 31 10.6 S 28 50 15 27 1008.4 1007.0 0.0
16/03:30pm 28.7 24.4 9.4 30 10.9 SSE 22 50 12 27 1008.5 1007.1 0.0
16/03:27pm 28.9 24.8 10.1 31 10.7 SSE 22 50 12 27 1008.4 1007.0 0.0
16/03:00pm 29.1 25.9 9.8 30 11.0 SSE 17 30 9 16 1008.4 1007.0 0.0
16/02:30pm 28.5 24.2 9.2 30 10.8 SE 22 37 12 20 1008.4 1007.0 0.0
16/02:00pm 28.5 24.9 8.2 28 11.2 S 17 28 9 15 1008.5 1007.1 0.0
16/01:30pm 28.9 25.4 8.6 28 11.3 S 17 28 9 15 1008.5 1007.1 0.0
16/01:00pm 27.9 24.5 7.7 28 11.1 SSE 15 24 8 13 1008.7 1007.3 0.0
16/12:30pm 26.3 23.4 8.3 32 9.8 SSE 13 24 7 13 1008.9 1007.5 0.0
16/12:00pm 25.2 21.8 9.1 36 8.9 S 17 28 9 15 1008.9 1007.5 0.0
16/11:30am 25.0 21.5 10.1 39 8.4 SSE 19 30 10 16 1009.3 1007.8 0.0
16/11:00am 23.4 19.6 11.1 46 7.0 SSE 22 33 12 18 1009.5 1008.0 0.0
16/10:30am 23.2 19.3 10.9 46 6.9 S 22 33 12 18 1009.6 1008.1 0.0
16/10:00am 22.1 18.1 11.8 52 5.9 SSE 24 33 13 18 1009.6 1008.1 0.0
16/09:30am 21.9 18.5 11.3 51 6.0 SSE 20 33 11 18 1009.9 1008.4 0.0
16/09:00am 20.4 16.7 11.6 57 5.0 SSE 22 32 12 17 1009.8 1008.3 0.0
16/08:30am 19.4 16.2 11.2 59 4.6 SSE 19 30 10 16 1010.0 1008.5 0.0
16/08:00am 18.4 15.1 11.7 65 3.7 SSE 20 28 11 15 1010.1 1008.6 0.0
16/07:30am 16.8 13.1 11.5 71 2.9 SSE 22 32 12 17 1010.2 1008.7 0.0
16/07:00am 16.2 13.2 11.8 75 2.4 SSE 19 28 10 15 1010.1 1008.6 0.0
16/06:30am 15.4 11.7 11.6 78 2.1 SSE 22 28 12 15 1009.8 1008.3 0.0
16/06:00am 14.7 12.0 11.7 82 1.6 SSE 17 24 9 13 1009.8 1008.3 0.0
16/05:30am 14.4 11.7 11.7 84 1.5 S 17 22 9 12 1009.6 1008.1 0.0
16/05:00am 14.3 11.3 11.8 85 1.4 SSE 19 28 10 15 1009.0 1007.6 0.0
16/04:30am 13.8 11.9 11.7 87 1.1 S 13 19 7 10 1008.9 1007.5 0.0
16/04:00am 13.8 11.5 11.8 88 1.1 SSE 15 28 8 15 1008.6 1007.2 0.0
16/03:30am 13.5 11.5 11.4 87 1.1 SSE 13 17 7 9 1008.5 1007.1 0.0
16/03:00am 13.2 11.9 11.1 87 1.1 S 9 13 5 7 1008.5 1007.1 0.0
16/02:30am 13.5 11.4 11.2 86 1.2 SSE 13 17 7 9 1008.5 1007.1 0.0
16/02:00am 13.6 11.9 11.1 85 1.3 SSE 11 13 6 7 1008.5 1007.1 0.0
16/01:30am 13.9 12.2 11.2 84 1.5 SSE 11 17 6 9 1008.7 1007.3 0.0
16/01:00am 14.1 12.0 11.3 83 1.5 SSE 13 19 7 10 1008.8 1007.4 0.0
16/12:30am 14.6 11.5 11.6 82 1.6 SSE 19 26 10 14 1008.7 1007.3 0.0
16/12:00am 14.8 12.5 11.6 81 1.8 SSE 15 22 8 12 1009.0 1007.6 0.0
 
Date/Time
WST
Temp
°C
App
Temp
°C
Dew
Point
°C
Rel
Hum
%
Delta-T
°C
Wind Press
QNH
hPa
Press
MSL
hPa
Rain since
9am
mm
Dir  Spd
km/h
Gust
km/h
Spd
kts
Gust
kts
15/11:30pm 15.1 12.3 11.5 79 2.0 SSE 17 22 9 12 1009.0 1007.6 0.0
15/11:00pm 15.5 11.8 11.5 77 2.2 SSE 22 30 12 16 1008.9 1007.5 0.0
15/10:30pm 15.9 12.2 11.5 75 2.4 SSE 22 30 12 16 1008.8 1007.4 0.0
15/10:00pm 16.6 12.6 11.7 73 2.7 SSE 24 33 13 18 1008.9 1007.5 0.0
15/09:30pm 17.3 12.2 11.8 70 3.1 S 30 44 16 24 1008.7 1007.3 0.0
15/09:00pm 18.0 13.4 12.2 69 3.3 S 28 39 15 21 1008.3 1006.9 0.0
15/08:30pm 19.9 15.4 12.7 63 4.1 S 28 35 15 19 1007.7 1006.2 0.0
15/08:00pm 21.4 15.8 13.3 60 4.7 S 35 48 19 26 1007.2 1005.7 0.0
15/07:30pm 24.4 18.4 13.3 50 6.5 SSE 37 48 20 26 1006.1 1004.6 0.0
15/07:20pm 26.4 22.0 12.8 43 8.0 SSE 28 46 15 25 1005.7 1004.3 0.0
15/07:07pm 30.0 27.4 9.5 28 11.7 NNW 13 43 7 23 1005.1 1003.6 0.0
15/07:00pm 33.0 29.0 -2.6 10 16.9 N 9 11 5 6 1004.5 1003.0 0.0
15/06:30pm 35.9 32.5 -1.9 9 18.5 NNW 6 11 3 6 1004.5 1003.0 0.0
15/06:00pm 37.2 32.0 -2.5 8 19.5 NW 15 20 8 11 1004.5 1003.0 0.0
15/05:30pm 37.9 32.0 -2.0 8 19.7 NW 19 46 10 25 1004.5 1003.0 0.0
15/05:00pm 38.5 34.2 -1.6 8 20.1 WNW 11 26 6 14 1004.6 1003.1 0.0
15/04:30pm 38.5 32.5 -1.6 8 20.0 WNW 20 33 11 18 1004.9 1003.4 0.0
15/04:00pm 38.6 32.6 -1.5 8 20.1 NW 20 33 11 18 1005.2 1003.7 0.0
15/03:30pm 39.0 34.0 -1.2 8 20.3 WNW 15 30 8 16 1005.5 1004.0 0.0
15/03:00pm 38.6 32.6 -1.5 8 20.1 NW 20 30 11 16 1006.1 1004.6 0.0
15/02:30pm 38.1 32.2 -1.9 8 19.8 NW 19 28 10 15 1006.5 1005.0 0.0
15/02:00pm 37.8 33.7 -0.5 9 19.4 N 11 32 6 17 1006.8 1005.3 0.0
15/01:30pm 37.4 32.1 -0.8 9 19.2 N 17 32 9 17 1007.2 1005.7 0.0
15/01:00pm 37.4 32.1 -0.8 9 19.2 NNW 17 26 9 14 1007.4 1005.9 0.0
15/12:30pm 37.0 32.6 0.4 10 18.7 NW 13 26 7 14 1007.9 1006.4 0.0
15/12:00pm 36.4 31.7 1.2 11 18.2 N 15 28 8 15 1008.4 1007.0 0.0
15/11:30am 35.6 30.9 0.6 11 17.8 NNW 15 32 8 17 1008.9 1007.5 0.0
15/11:00am 36.0 30.4 0.9 11 18.0 N 20 32 11 17 1009.5 1008.0 0.0
15/10:30am 35.0 28.9 2.5 13 16.9 N 24 32 13 17 1009.8 1008.3 0.0
15/10:00am 33.8 26.9 2.6 14 16.2 N 28 37 15 20 1010.1 1008.6 0.0
15/09:30am 32.0 24.8 3.1 16 15.0 N 30 39 16 21 1010.5 1009.0 0.0
15/09:00am 31.1 23.9 3.2 17 14.4 N 30 41 16 22 1010.8 1009.3 0.0
15/08:30am 29.6 22.5 3.6 19 13.4 N 30 37 16 20 1011.2 1009.8 0.0
15/08:00am 28.3 22.0 3.9 21 12.5 NNE 26 33 14 18 1011.5 1010.1 0.0
15/07:30am 26.8 20.9 4.0 23 11.6 N 24 35 13 19 1011.7 1010.3 0.0
15/07:00am 22.1 20.4 5.9 35 8.3 NNE 4 6 2 3 1012.0 1010.6 0.0
15/06:30am 20.3 19.8 7.7 44 6.6 CALM 0 0 0 0 1012.0 1010.6 0.0
15/06:27am 19.9 19.3 7.3 44 6.5 CALM 0 0 0 0 1012.0 1010.6 0.0
15/06:00am 14.9 14.7 9.1 68 3.0 CALM 0 0 0 0 1012.0 1010.6 0.0
15/05:30am 12.0 11.4 7.3 73 2.3 CALM 0 0 0 0 1011.7 1010.3 0.0
15/05:00am 11.6 10.1 6.9 73 2.3 ESE 4 4 2 2 1011.5 1010.1 0.0
15/04:30am 11.0 10.1 6.0 71 2.4 CALM 0 0 0 0 1011.4 1010.0 0.0
15/04:00am 12.4 11.6 6.5 67 2.9 CALM 0 0 0 0 1011.3 1009.9 0.0
15/03:30am 13.3 12.6 7.1 66 3.1 CALM 0 0 0 0 1011.2 1009.8 0.0
15/03:00am 14.1 13.5 7.6 65 3.3 CALM 0 0 0 0 1011.3 1009.9 0.0
15/02:30am 15.6 14.5 8.4 62 3.7 ESE 4 6 2 3 1011.4 1010.0 0.0
15/02:00am 15.3 13.3 7.3 59 4.0 ESE 7 9 4 5 1011.5 1010.1 0.0
15/01:30am 15.9 13.7 7.9 59 4.1 SE 9 11 5 6 1011.7 1010.3 0.0
15/01:00am 16.4 14.4 8.6 60 4.1 ESE 9 9 5 5 1012.0 1010.6 0.0
15/12:30am 17.0 15.4 8.7 58 4.3 ESE 7 9 4 5 1012.4 1010.9 0.0
15/12:00am 17.6 15.6 8.5 55 4.8 SE 9 11 5 6 1012.6 1011.1 0.0
 
Date/Time
WST
Temp
°C
App
Temp
°C
Dew
Point
°C
Rel
Hum
%
Delta-T
°C
Wind Press
QNH
hPa
Press
MSL
hPa
Rain since
9am
mm
Dir  Spd
km/h
Gust
km/h
Spd
kts
Gust
kts
14/11:30pm 18.6 16.8 8.0 50 5.5 ESE 7 9 4 5 1012.7 1011.2 0.0
14/11:00pm 20.6 18.6 8.6 46 6.4 E 9 13 5 7 1012.7 1011.2 0.0
14/10:30pm 21.4 18.9 8.0 42 7.1 E 11 15 6 8 1012.8 1011.3 0.0
14/10:00pm 22.0 19.8 7.8 40 7.5 ESE 9 13 5 7 1012.9 1011.4 0.0
14/09:30pm 23.6 20.6 7.7 36 8.5 ESE 13 17 7 9 1012.7 1011.2 0.0
14/09:00pm 24.3 21.2 7.4 34 9.0 ESE 13 20 7 11 1012.7 1011.2 0.0
14/08:30pm 25.4 22.2 8.4 34 9.3 ESE 15 20 8 11 1012.5 1011.0 0.0
14/08:00pm 26.8 22.6 8.3 31 10.2 SE 20 28 11 15 1012.1 1010.7 0.0
14/07:30pm 26.0 23.0 0.6 19 12.1 E 6 7 3 4 1011.7 1010.3 0.0
14/07:00pm 30.1 26.7 -0.3 14 14.7 ENE 7 11 4 6 1011.7 1010.3 0.0
14/06:30pm 32.3 28.7 0.4 13 15.8 ENE 9 13 5 7 1011.5 1010.1 0.0
14/06:00pm 33.4 29.3 0.1 12 16.6 NE 11 17 6 9 1011.3 1009.9 0.0
14/05:30pm 33.8 30.6 0.5 12 16.7 N 7 15 4 8 1011.3 1009.9 0.0
14/05:00pm 34.2 31.2 0.8 12 16.9 SSE 6 7 3 4 1011.3 1009.9 0.0
14/04:30pm 34.4 29.5 -0.3 11 17.2 NE 15 22 8 12 1011.5 1010.1 0.0
14/04:00pm 34.2 31.2 0.8 12 16.9 N 6 13 3 7 1011.9 1010.5 0.0
14/03:30pm 34.5 31.0 1.0 12 17.0 N 9 19 5 10 1012.2 1010.8 0.0
14/03:00pm 33.9 31.2 0.5 12 16.8 NE 4 9 2 5 1012.6 1011.1 0.0
14/02:30pm 33.3 29.8 1.2 13 16.2 N 9 19 5 10 1013.1 1011.6 0.0
14/02:00pm 33.2 29.3 1.1 13 16.2 NNE 11 22 6 12 1013.7 1012.2 0.0
14/01:30pm 32.1 28.8 2.2 15 15.2 N 9 19 5 10 1014.1 1012.7 0.0
14/01:00pm 32.1 28.9 3.1 16 15.0 N 9 19 5 10 1014.6 1013.2 0.0
14/12:30pm 32.3 28.9 4.2 17 14.8 NNE 11 24 6 13 1014.9 1013.5 0.0
14/12:00pm 31.0 27.9 5.4 20 13.7 NNE 11 24 6 13 1015.3 1013.9 0.0
14/11:30am 29.3 25.4 5.4 22 12.7 NNE 15 24 8 13 1015.8 1014.3 0.0
14/11:00am 28.6 25.0 6.7 25 11.8 NNE 15 32 8 17 1016.1 1014.6 0.0
14/10:30am 27.2 23.9 6.6 27 11.0 NE 13 22 7 12 1016.4 1014.9 0.0
14/10:00am 26.5 23.1 7.5 30 10.3 NE 15 26 8 14 1016.6 1015.2 0.0
14/09:30am 23.9 19.7 7.5 35 8.7 ENE 19 24 10 13 1016.7 1015.3 0.0
14/09:00am 22.4 17.7 7.8 39 7.7 ENE 22 32 12 17 1016.8 1015.4 0.0

Other Formats:

Comma delimited format used in spreadsheet applications
http://www.bom.gov.au/fwo/IDW60801/IDW60801.94628.axf

JavaScript Object Notation format (JSON) in row-major order
http://www.bom.gov.au/fwo/IDW60801/IDW60801.94628.json